Terminal Aerodrome Forecast
Issued by NWS

Home | Current Version | Previous Version | Text Only | Print | Product List | Glossary On
Versions: 1 2 3 4 5 6 7 8 9 10 11 12 13 14 15 16 17 18 19 20 21 22 23 24 25 26 27 28
000
FTUS41 KPBZ 290500
TAFAGC
TAF
KAGC 290530Z 2906/3006 15004KT P6SM BKN200
     FM291200 14006KT P6SM BKN080
     FM291700 19010G16KT 3SM -SHRASN OVC020
     FM292000 20010G18KT 2SM -SHRA BR OVC008
     FM300200 25013G22KT 2SM -SHSN OVC008=

USA.gov is the U.S. government's official web portal to all federal, state and local government web resources and services.